Time;durP1;ratioP1;P1;durP2;ratioP2;P2;SDS_P1;SDS_P2;PMS_P1;PMS_P2;Temp;Humidity;BMP_temperature;BMP_pressure;BME280_temperature;BME280_humidity;BME280_pressure;Samples;Min_cycle;Max_cycle;Signal;HPM_P1;HPM_P2
2023/05/26 00:00:56;;;;;;;25.05;6.07;;;7.70;99.90;;;;;;5136212;27;20034;-72
2023/05/26 00:03:22;;;;;;;27.08;4.82;;;7.60;99.90;;;;;;5136841;27;20320;-71
2023/05/26 00:05:47;;;;;;;33.25;5.85;;;7.70;99.90;;;;;;5134848;27;20050;-72
2023/05/26 00:08:13;;;;;;;28.40;5.68;;;7.60;99.90;;;;;;5135142;27;20078;-72
2023/05/26 00:10:39;;;;;;;24.42;4.78;;;9.10;99.90;;;;;;5135893;27;20042;-72
2023/05/26 00:13:06;;;;;;;32.67;5.40;;;7.70;99.90;;;;;;5135213;27;20061;-71
2023/05/26 00:15:32;;;;;;;30.70;5.80;;;9.50;99.90;;;;;;5135596;27;20069;-72
2023/05/26 00:17:58;;;;;;;33.25;6.47;;;7.70;99.90;;;;;;5132548;27;20499;-72
2023/05/26 00:20:25;;;;;;;38.38;5.43;;;7.60;99.90;;;;;;5134760;27;20042;-72
2023/05/26 00:22:51;;;;;;;21.38;4.32;;;7.60;99.90;;;;;;5136427;27;20041;-72
2023/05/26 00:25:17;;;;;;;28.33;5.95;;;7.70;99.90;;;;;;5133496;27;20042;-72
2023/05/26 00:27:43;;;;;;;35.55;7.43;;;9.30;99.90;;;;;;5133020;27;20096;-71
2023/05/26 00:30:10;;;;;;;32.10;5.47;;;7.40;99.90;;;;;;5134363;27;20768;-71
2023/05/26 00:32:36;;;;;;;42.67;5.75;;;7.40;99.90;;;;;;5134024;27;20232;-72
2023/05/26 00:35:02;;;;;;;33.65;6.13;;;7.70;99.90;;;;;;5115168;27;20403;-71
2023/05/26 00:37:28;;;;;;;36.25;6.50;;;8.60;99.90;;;;;;5132891;27;20121;-71
2023/05/26 00:39:53;;;;;;;27.63;6.35;;;7.60;99.90;;;;;;5134905;27;20566;-71
2023/05/26 00:42:19;;;;;;;28.52;5.57;;;7.50;99.90;;;;;;5133252;27;20045;-72
2023/05/26 00:44:45;;;;;;;28.23;5.10;;;7.40;99.90;;;;;;5114281;27;20046;-71
2023/05/26 00:47:11;;;;;;;35.30;5.38;;;7.30;99.90;;;;;;5135020;27;20083;-71
2023/05/26 00:49:37;;;;;;;36.60;6.28;;;7.30;99.90;;;;;;5115254;27;20035;-71
2023/05/26 00:52:03;;;;;;;32.90;5.95;;;7.30;99.90;;;;;;5115676;27;20119;-72
2023/05/26 00:54:29;;;;;;;25.05;4.82;;;7.40;99.90;;;;;;5134810;27;20050;-71
2023/05/26 00:56:56;;;;;;;30.77;5.03;;;7.40;99.90;;;;;;5134492;27;20037;-72
2023/05/26 00:59:22;;;;;;;32.10;5.10;;;9.10;99.90;;;;;;5116628;27;20126;-71
2023/05/26 01:01:51;;;;;;;27.45;5.30;;;7.30;99.90;;;;;;5132620;27;20035;-71
2023/05/26 01:04:17;;;;;;;32.28;5.15;;;7.10;99.90;;;;;;5134389;27;20050;-70
2023/05/26 01:06:46;;;;;;;29.95;6.63;;;7.50;99.90;;;;;;5132479;27;20705;-71
2023/05/26 01:09:13;;;;;;;27.10;5.05;;;7.40;99.90;;;;;;5132643;27;20062;-71
2023/05/26 01:11:56;;;;;;;26.20;4.85;;;7.20;99.90;;;;;;5134857;27;20115;-71
2023/05/26 01:14:45;;;;;;;28.48;5.57;;;7.30;99.90;;;;;;5132457;27;20574;-71
2023/05/26 01:17:18;;;;;;;25.80;5.00;;;7.20;99.90;;;;;;5134575;27;20051;-71
2023/05/26 01:20:09;;;;;;;30.05;5.18;;;8.80;99.90;;;;;;5133849;27;20048;-71
2023/05/26 01:22:43;;;;;;;22.42;4.47;;;7.30;99.90;;;;;;5134259;27;20070;-72
2023/05/26 01:25:34;;;;;;;31.45;4.70;;;7.30;99.90;;;;;;5134604;27;20058;-71
2023/05/26 01:28:04;;;;;;;26.75;5.57;;;7.10;99.90;;;;;;5134902;27;20093;-71
2023/05/26 01:30:31;;;;;;;34.05;5.65;;;7.20;99.90;;;;;;5115271;27;20075;-71
2023/05/26 01:32:57;;;;;;;27.33;6.07;;;7.00;99.90;;;;;;5134632;27;20104;-71
2023/05/26 01:35:23;;;;;;;32.10;5.35;;;7.20;99.90;;;;;;5133040;27;20054;-71
2023/05/26 01:37:49;;;;;;;30.88;5.00;;;7.10;99.90;;;;;;5134206;27;20450;-71
2023/05/26 01:40:15;;;;;;;30.13;5.60;;;8.50;99.90;;;;;;5131680;27;20073;-70
2023/05/26 01:42:54;;;;;;;30.35;5.47;;;5.60;99.90;;;;;;5133981;27;20123;-71
2023/05/26 01:45:23;;;;;;;29.02;5.32;;;8.50;99.90;;;;;;5131598;27;20073;-71
2023/05/26 01:47:59;;;;;;;29.00;5.07;;;5.00;99.90;;;;;;5134503;27;20050;-71
2023/05/26 01:50:47;;;;;;;29.55;6.75;;;7.20;99.90;;;;;;5132423;27;20107;-72
2023/05/26 01:53:14;;;;;;;24.65;4.97;;;7.10;99.90;;;;;;5133518;27;20046;-71
2023/05/26 01:55:42;;;;;;;28.15;6.10;;;7.40;99.90;;;;;;5133160;27;20043;-71
2023/05/26 01:58:08;;;;;;;27.85;5.00;;;7.10;99.90;;;;;;5133831;27;20050;-71
2023/05/26 02:00:35;;;;;;;28.60;5.57;;;8.20;99.90;;;;;;5133080;27;20139;-71
2023/05/26 02:03:01;;;;;;;30.23;5.75;;;8.50;99.90;;;;;;5131984;27;20570;-70
2023/05/26 02:05:27;;;;;;;29.30;5.20;;;7.00;99.90;;;;;;5132749;27;20035;-71
2023/05/26 02:07:53;;;;;;;29.27;5.07;;;7.00;99.90;;;;;;5132852;27;20552;-72
2023/05/26 02:10:19;;;;;;;30.45;5.00;;;7.90;99.90;;;;;;5131883;27;20034;-71
2023/05/26 02:12:44;;;;;;;27.65;5.38;;;6.80;99.90;;;;;;5131001;27;20077;-72
2023/05/26 02:15:10;;;;;;;34.33;6.35;;;7.00;99.90;;;;;;5132797;27;20125;-70
2023/05/26 02:17:36;;;;;;;29.35;5.38;;;7.70;99.90;;;;;;5132890;27;20502;-71
2023/05/26 02:20:02;;;;;;;29.17;5.82;;;6.70;99.90;;;;;;5130691;27;20043;-71
2023/05/26 02:22:28;;;;;;;38.88;7.20;;;6.80;99.90;;;;;;5131580;27;20758;-71
2023/05/26 02:24:55;;;;;;;31.55;5.00;;;7.00;99.90;;;;;;5132152;27;20074;-71
2023/05/26 02:27:21;;;;;;;32.63;6.43;;;7.50;99.90;;;;;;5132999;27;20034;-71
2023/05/26 02:29:46;;;;;;;30.00;5.65;;;6.80;99.90;;;;;;5133117;27;20034;-71
2023/05/26 02:32:12;;;;;;;32.70;5.18;;;6.70;99.90;;;;;;5132724;27;20055;-72
2023/05/26 02:34:38;;;;;;;31.88;6.65;;;6.80;99.90;;;;;;5133380;27;20038;-71
2023/05/26 02:37:04;;;;;;;25.15;6.45;;;6.70;99.90;;;;;;5133702;27;20045;-71
2023/05/26 02:39:30;;;;;;;34.40;5.97;;;6.70;99.90;;;;;;5132270;27;20054;-72
2023/05/26 02:41:55;;;;;;;29.80;6.85;;;6.90;99.90;;;;;;5131975;27;20067;-71
2023/05/26 02:44:21;;;;;;;29.40;4.93;;;8.60;99.90;;;;;;5114849;27;20081;-71
2023/05/26 02:46:47;;;;;;;33.97;5.72;;;6.90;99.90;;;;;;5136441;27;20034;-71
2023/05/26 02:49:13;;;;;;;31.10;5.72;;;6.80;99.90;;;;;;5137400;27;20072;-72
2023/05/26 02:51:38;;;;;;;31.48;5.88;;;6.90;99.90;;;;;;5137652;27;20314;-71
2023/05/26 02:54:04;;;;;;;27.73;4.70;;;6.70;99.90;;;;;;5137038;27;21968;-71
2023/05/26 02:56:30;;;;;;;25.65;4.65;;;6.80;99.90;;;;;;5137236;27;20143;-72
2023/05/26 02:58:55;;;;;;;25.85;5.65;;;6.80;99.90;;;;;;5117305;27;20031;-72
2023/05/26 03:01:24;;;;;;;20.88;5.15;;;6.60;99.90;;;;;;5135359;27;20050;-72
2023/05/26 03:03:50;;;;;;;22.23;4.53;;;7.30;99.90;;;;;;5136526;27;20046;-72
2023/05/26 03:06:16;;;;;;;32.20;5.70;;;6.50;99.90;;;;;;5135861;27;20106;-73
2023/05/26 03:08:42;;;;;;;28.73;4.53;;;6.60;99.90;;;;;;5136768;27;20050;-72
2023/05/26 03:11:08;;;;;;;37.88;5.82;;;6.70;99.90;;;;;;5135236;27;20054;-72
2023/05/26 03:13:33;;;;;;;29.50;4.45;;;8.70;99.90;;;;;;5136781;27;20043;-72
2023/05/26 03:15:59;;;;;;;37.35;5.75;;;7.10;99.90;;;;;;5119424;27;20046;-74
2023/05/26 03:18:25;;;;;;;28.85;6.15;;;6.60;99.90;;;;;;5117193;27;20545;-74
2023/05/26 03:20:51;;;;;;;25.27;5.47;;;6.30;99.90;;;;;;5135953;27;20052;-74
2023/05/26 03:23:17;;;;;;;25.95;5.65;;;7.30;99.90;;;;;;5138532;27;20154;-75
2023/05/26 03:25:43;;;;;;;27.70;5.00;;;6.30;99.90;;;;;;5136605;27;20050;-74
2023/05/26 03:28:09;;;;;;;29.23;5.60;;;6.60;99.90;;;;;;5136216;27;20055;-73
2023/05/26 03:30:35;;;;;;;28.85;5.05;;;6.50;99.90;;;;;;5118304;27;20053;-72
2023/05/26 03:33:01;;;;;;;26.25;4.43;;;6.70;99.90;;;;;;5137312;27;20702;-73
2023/05/26 03:35:27;;;;;;;32.50;5.72;;;8.50;99.90;;;;;;5134855;27;20071;-72
2023/05/26 03:37:53;;;;;;;32.13;5.03;;;6.50;99.90;;;;;;5136469;27;20142;-72
2023/05/26 03:40:19;;;;;;;29.83;6.28;;;6.50;99.90;;;;;;5135585;27;20338;-73
2023/05/26 03:42:44;;;;;;;26.55;5.00;;;6.60;99.90;;;;;;5134648;27;20554;-73
2023/05/26 03:45:12;;;;;;;27.60;5.43;;;6.50;99.90;;;;;;5134906;27;20047;-72
2023/05/26 03:47:38;;;;;;;26.10;4.80;;;6.50;99.90;;;;;;5133958;27;20038;-72
2023/05/26 03:50:05;;;;;;;27.85;4.63;;;6.30;99.90;;;;;;5134679;27;20042;-71
2023/05/26 03:52:31;;;;;;;30.10;5.82;;;6.40;99.90;;;;;;5137183;27;20153;-71
2023/05/26 03:54:57;;;;;;;33.95;5.78;;;6.50;99.90;;;;;;5119559;27;20220;-65
2023/05/26 03:57:23;;;;;;;25.33;5.70;;;6.70;99.90;;;;;;5133705;27;20271;-65
2023/05/26 03:59:48;;;;;;;25.90;5.72;;;6.40;99.90;;;;;;5134883;27;20564;-64
2023/05/26 04:02:14;;;;;;;31.45;4.63;;;8.00;99.90;;;;;;5136363;27;20118;-66
2023/05/26 04:04:41;;;;;;;27.17;4.97;;;6.50;99.90;;;;;;5135205;27;20046;-65
2023/05/26 04:07:07;;;;;;;32.05;4.78;;;8.80;99.90;;;;;;5135536;27;20050;-65
2023/05/26 04:09:32;;;;;;;22.55;4.25;;;6.70;99.90;;;;;;5134710;27;20471;-65
2023/05/26 04:11:58;;;;;;;29.38;5.55;;;6.70;99.90;;;;;;5136482;27;20121;-65
2023/05/26 04:14:24;;;;;;;27.15;5.00;;;6.70;99.90;;;;;;5134819;27;20050;-65
2023/05/26 04:16:50;;;;;;;24.05;5.30;;;6.80;99.90;;;;;;5134366;27;20122;-65
2023/05/26 04:19:15;;;;;;;21.55;4.80;;;6.90;99.90;;;;;;5134243;27;20410;-65
2023/05/26 04:21:41;;;;;;;28.80;5.88;;;7.20;99.90;;;;;;5134497;27;20042;-65
2023/05/26 04:24:07;;;;;;;30.92;5.82;;;7.00;99.90;;;;;;5135918;27;20038;-66
2023/05/26 04:26:33;;;;;;;30.08;5.53;;;7.00;99.90;;;;;;5115497;27;20115;-66
2023/05/26 04:29:00;;;;;;;34.63;4.90;;;7.00;99.90;;;;;;5134154;27;20058;-66
2023/05/26 04:31:28;;;;;;;28.23;5.90;;;8.90;99.90;;;;;;5135568;27;20039;-69
2023/05/26 04:33:57;;;;;;;23.63;4.82;;;7.40;99.90;;;;;;5134945;27;20134;-66
2023/05/26 04:36:24;;;;;;;27.67;6.35;;;7.30;99.90;;;;;;5135538;27;20157;-66
2023/05/26 04:38:51;;;;;;;26.33;4.45;;;7.70;99.90;;;;;;5133809;27;20050;-67
2023/05/26 04:41:18;;;;;;;34.08;6.60;;;7.60;99.90;;;;;;5134139;27;20051;-66
2023/05/26 04:43:45;;;;;;;34.10;5.53;;;9.00;99.90;;;;;;5132940;27;20046;-66
2023/05/26 04:46:10;;;;;;;25.25;4.90;;;7.90;99.90;;;;;;5116614;27;20043;-67
2023/05/26 04:48:37;;;;;;;28.33;5.65;;;7.80;99.90;;;;;;5115218;27;20056;-67
2023/05/26 04:51:04;;;;;;;29.23;5.03;;;7.90;99.90;;;;;;5133573;27;20047;-66
2023/05/26 04:53:30;;;;;;;30.20;5.10;;;8.10;99.90;;;;;;5134782;27;20050;-66
2023/05/26 04:56:00;;;;;;;24.15;5.35;;;8.50;99.90;;;;;;5115748;27;20049;-67
2023/05/26 04:58:26;;;;;;;26.77;4.75;;;8.40;99.90;;;;;;5133745;27;20790;-67
2023/05/26 05:00:53;;;;;;;30.05;5.55;;;8.40;99.90;;;;;;5114238;27;20045;-67
2023/05/26 05:03:21;;;;;;;30.42;5.30;;;8.50;99.90;;;;;;5132410;27;20049;-67
2023/05/26 05:05:47;;;;;;;30.08;5.13;;;8.60;99.90;;;;;;5132199;27;20052;-67
2023/05/26 05:08:13;;;;;;;22.83;4.82;;;8.70;99.90;;;;;;5134381;27;20051;-67
2023/05/26 05:10:39;;;;;;;22.90;4.97;;;9.00;99.90;;;;;;5134408;27;20507;-67
2023/05/26 05:13:05;;;;;;;30.50;5.13;;;8.80;99.90;;;;;;5133392;27;20137;-67
2023/05/26 05:15:31;;;;;;;29.48;5.82;;;9.40;99.90;;;;;;5101021;27;20059;-67
2023/05/26 05:17:58;;;;;;;30.73;5.32;;;9.10;99.90;;;;;;5134618;27;20137;-67
2023/05/26 05:20:25;;;;;;;22.83;5.53;;;9.10;99.90;;;;;;5133128;27;20038;-67
2023/05/26 05:22:50;;;;;;;25.48;5.50;;;9.20;99.90;;;;;;5132685;27;20045;-67
2023/05/26 05:25:17;;;;;;;29.30;4.90;;;9.30;99.90;;;;;;5134855;27;20072;-68
2023/05/26 05:27:43;;;;;;;24.60;5.25;;;9.60;99.90;;;;;;5133954;27;20125;-68
2023/05/26 05:30:10;;;;;;;22.88;5.10;;;9.60;99.90;;;;;;5133524;27;20416;-66
2023/05/26 05:32:35;;;;;;;26.55;4.55;;;9.80;99.90;;;;;;5132648;27;20034;-66
2023/05/26 05:35:01;;;;;;;22.20;5.45;;;9.90;99.90;;;;;;5131142;27;20115;-66
2023/05/26 05:37:27;;;;;;;28.23;6.25;;;9.90;99.90;;;;;;5133737;27;20042;-66
2023/05/26 05:39:53;;;;;;;26.50;5.07;;;8.70;99.90;;;;;;5132855;27;20128;-66
2023/05/26 05:42:21;;;;;;;32.35;5.10;;;10.10;99.90;;;;;;5132986;27;20514;-66
2023/05/26 05:44:47;;;;;;;25.77;4.90;;;10.40;99.90;;;;;;5113615;27;20491;-67
2023/05/26 05:47:13;;;;;;;27.67;5.72;;;10.60;99.90;;;;;;5114747;27;20091;-67
2023/05/26 05:49:38;;;;;;;27.30;4.78;;;10.60;99.90;;;;;;5131157;27;20621;-67
2023/05/26 05:52:04;;;;;;;24.42;4.78;;;10.70;99.90;;;;;;5112926;27;20673;-66
2023/05/26 05:54:30;;;;;;;35.85;5.53;;;10.00;99.90;;;;;;5133135;27;20046;-66
2023/05/26 05:56:56;;;;;;;29.70;5.00;;;10.90;99.90;;;;;;5114880;27;20622;-67
2023/05/26 05:59:22;;;;;;;27.48;5.13;;;11.10;99.90;;;;;;5132125;27;20046;-66
2023/05/26 06:01:47;;;;;;;26.05;5.20;;;11.20;99.90;;;;;;5131870;27;20049;-68
2023/05/26 06:04:13;;;;;;;35.08;5.20;;;11.20;99.90;;;;;;5131246;27;20047;-67
2023/05/26 06:06:39;;;;;;;25.67;5.03;;;11.30;99.90;;;;;;5133109;27;21049;-67
2023/05/26 06:09:05;;;;;;;23.85;5.15;;;11.60;99.90;;;;;;5131917;27;20043;-68
2023/05/26 06:11:31;;;;;;;28.02;5.20;;;11.60;99.90;;;;;;5129982;27;20054;-67
2023/05/26 06:13:56;;;;;;;23.83;4.82;;;11.70;99.90;;;;;;5131597;27;20046;-68
2023/05/26 06:16:22;;;;;;;28.70;5.25;;;11.80;99.90;;;;;;5130762;27;20039;-68
2023/05/26 06:18:48;;;;;;;24.92;4.40;;;12.10;99.90;;;;;;5132443;27;20070;-69
2023/05/26 06:21:13;;;;;;;24.60;4.45;;;12.30;99.90;;;;;;5132467;27;20050;-68
2023/05/26 06:23:39;;;;;;;28.77;5.18;;;12.40;99.90;;;;;;5133224;27;20035;-69
2023/05/26 06:26:05;;;;;;;23.55;5.07;;;12.80;99.90;;;;;;5115158;27;20150;-70
2023/05/26 06:28:31;;;;;;;23.55;4.50;;;13.40;99.90;;;;;;5131534;27;20038;-69
2023/05/26 06:30:56;;;;;;;22.23;4.18;;;13.30;99.90;;;;;;5112831;27;20054;-69
2023/05/26 06:33:22;;;;;;;20.35;4.72;;;13.20;99.90;;;;;;5133508;27;20415;-67
2023/05/26 06:35:48;;;;;;;26.50;4.75;;;13.10;99.90;;;;;;5131421;27;20422;-71
2023/05/26 06:38:14;;;;;;;24.42;4.75;;;13.10;99.90;;;;;;5131439;27;20035;-68
2023/05/26 06:40:39;;;;;;;24.52;4.75;;;12.90;99.90;;;;;;5131024;27;20690;-67
2023/05/26 06:43:05;;;;;;;18.65;3.78;;;12.90;99.90;;;;;;5132059;27;20069;-68
2023/05/26 06:45:31;;;;;;;20.20;3.95;;;12.90;99.90;;;;;;5130906;27;20246;-67
2023/05/26 06:47:57;;;;;;;27.10;4.40;;;12.80;99.90;;;;;;5131720;27;20049;-69
2023/05/26 06:50:23;;;;;;;24.55;3.83;;;12.90;99.90;;;;;;5131764;27;20054;-68
2023/05/26 06:52:48;;;;;;;24.23;3.80;;;13.30;99.90;;;;;;5132698;27;20487;-68
2023/05/26 06:55:16;;;;;;;22.52;4.00;;;13.70;99.90;;;;;;5132738;27;20038;-70
2023/05/26 06:57:42;;;;;;;19.90;3.63;;;13.90;99.90;;;;;;5131752;27;20583;-68
2023/05/26 07:00:08;;;;;;;23.35;4.55;;;14.80;99.90;;;;;;5131509;27;20045;-69
2023/05/26 07:02:34;;;;;;;18.80;2.97;;;15.40;99.90;;;;;;5131304;27;20138;-70
2023/05/26 07:04:59;;;;;;;16.00;3.53;;;15.60;99.90;;;;;;5131640;27;20201;-70
2023/05/26 07:07:25;;;;;;;21.67;3.58;;;15.70;99.90;;;;;;5132348;27;20043;-69
2023/05/26 07:09:51;;;;;;;15.98;4.15;;;15.90;99.90;;;;;;5131370;27;20707;-68
2023/05/26 07:12:17;;;;;;;16.15;3.78;;;15.80;99.90;;;;;;5132115;27;20464;-68
2023/05/26 07:14:42;;;;;;;18.55;4.03;;;15.90;99.90;;;;;;5131364;27;20061;-66
2023/05/26 07:17:09;;;;;;;16.83;4.45;;;16.80;99.90;;;;;;5114024;27;20043;-68
2023/05/26 07:19:35;;;;;;;18.20;3.65;;;17.20;99.90;;;;;;5131334;27;20449;-70
2023/05/26 07:22:02;;;;;;;14.73;3.47;;;17.50;99.90;;;;;;5131643;27;20099;-70
2023/05/26 07:24:28;;;;;;;18.05;3.40;;;18.10;99.90;;;;;;5132613;27;20069;-72
2023/05/26 07:26:53;;;;;;;19.48;3.97;;;18.00;99.90;;;;;;5115222;27;20042;-69
2023/05/26 07:29:19;;;;;;;18.38;3.42;;;18.40;99.90;;;;;;5131788;27;20054;-69
2023/05/26 07:31:45;;;;;;;14.10;3.28;;;18.40;99.90;;;;;;5132046;27;20046;-70
2023/05/26 07:34:11;;;;;;;17.58;3.60;;;18.40;99.90;;;;;;5135104;27;20043;-69
2023/05/26 07:36:37;;;;;;;19.38;3.95;;;18.40;99.90;;;;;;5136756;27;20128;-69
2023/05/26 07:39:03;;;;;;;19.25;4.47;;;18.40;99.90;;;;;;5115568;27;20038;-71
2023/05/26 07:41:29;;;;;;;14.73;3.45;;;19.00;99.90;;;;;;5135049;27;20716;-69
2023/05/26 07:43:55;;;;;;;23.05;3.83;;;19.40;99.90;;;;;;5117294;27;20031;-70
2023/05/26 07:46:20;;;;;;;19.02;3.50;;;19.10;99.90;;;;;;5136408;27;20039;-69
2023/05/26 07:48:47;;;;;;;15.95;3.90;;;19.50;99.90;;;;;;5136382;27;20065;-69
2023/05/26 07:51:16;;;;;;;16.55;3.85;;;19.30;99.90;;;;;;5135104;27;20047;-67
2023/05/26 07:53:42;;;;;;;14.50;3.22;;;19.80;99.90;;;;;;5116506;27;20046;-68
2023/05/26 07:56:07;;;;;;;19.38;4.00;;;19.70;99.90;;;;;;5137070;27;20103;-68
2023/05/26 07:58:35;;;;;;;15.10;3.42;;;19.60;99.90;;;;;;5136027;27;20102;-68
2023/05/26 08:01:01;;;;;;;12.82;3.33;;;19.70;99.90;;;;;;5137153;27;20131;-69
2023/05/26 08:03:27;;;;;;;16.73;3.45;;;19.90;99.90;;;;;;5135953;27;20042;-68
2023/05/26 08:05:52;;;;;;;19.60;4.03;;;19.60;99.90;;;;;;5135485;27;20550;-69
2023/05/26 08:08:18;;;;;;;14.77;3.88;;;20.10;99.90;;;;;;5136886;27;20039;-70
2023/05/26 08:10:44;;;;;;;13.10;3.47;;;19.80;99.90;;;;;;5118270;27;20043;-68
2023/05/26 08:13:10;;;;;;;17.50;3.72;;;19.90;99.90;;;;;;5134736;27;20054;-70
2023/05/26 08:15:35;;;;;;;15.55;3.35;;;19.50;99.90;;;;;;5134580;27;20050;-68
2023/05/26 08:18:01;;;;;;;16.85;3.70;;;18.40;99.90;;;;;;5134428;27;20047;-67
2023/05/26 08:20:27;;;;;;;12.88;3.13;;;18.30;99.90;;;;;;5115999;27;20035;-67
2023/05/26 08:22:53;;;;;;;18.60;4.05;;;18.40;99.90;;;;;;5133741;27;20498;-69
2023/05/26 08:25:18;;;;;;;17.65;4.18;;;18.00;99.90;;;;;;5135381;27;20042;-68
2023/05/26 08:27:44;;;;;;;19.55;4.57;;;18.00;99.90;;;;;;5134281;27;20386;-67
2023/05/26 08:30:10;;;;;;;14.23;3.47;;;18.00;99.90;;;;;;5135913;27;20601;-67
2023/05/26 08:32:36;;;;;;;19.45;4.10;;;18.10;99.90;;;;;;5133450;27;20039;-67
2023/05/26 08:35:02;;;;;;;14.10;3.17;;;18.00;99.90;;;;;;5134626;27;20079;-68
2023/05/26 08:37:28;;;;;;;17.20;3.63;;;18.20;99.90;;;;;;5133941;27;20027;-69
2023/05/26 08:39:56;;;;;;;23.33;3.80;;;18.20;99.90;;;;;;5135522;27;20116;-68
2023/05/26 08:42:25;;;;;;;18.50;4.47;;;18.40;99.90;;;;;;5100579;27;20072;-67
2023/05/26 08:44:51;;;;;;;14.77;3.58;;;18.70;99.90;;;;;;5134062;27;20399;-68
2023/05/26 08:47:18;;;;;;;18.15;3.58;;;18.70;99.90;;;;;;5133298;27;20079;-68
2023/05/26 08:49:52;;;;;;;17.02;4.28;;;18.70;99.90;;;;;;5134677;27;20046;-68
2023/05/26 08:52:20;;;;;;;13.55;3.75;;;18.20;99.90;;;;;;5133870;27;20031;-67
2023/05/26 08:54:48;;;;;;;12.30;3.42;;;18.10;99.90;;;;;;5136003;27;20141;-67
2023/05/26 08:57:17;;;;;;;13.80;3.40;;;17.80;99.90;;;;;;5115523;27;20042;-67
2023/05/26 08:59:46;;;;;;;17.80;3.78;;;17.80;99.90;;;;;;5134136;27;20094;-67
2023/05/26 09:02:12;;;;;;;18.15;3.90;;;17.50;99.90;;;;;;5133485;27;20514;-68
2023/05/26 09:04:38;;;;;;;16.75;3.50;;;17.40;99.90;;;;;;5133280;27;20031;-68
2023/05/26 09:07:08;;;;;;;15.88;3.55;;;17.30;99.90;;;;;;5133956;27;20111;-67
2023/05/26 09:09:34;;;;;;;16.77;3.50;;;17.00;99.90;;;;;;5134065;27;20038;-67
2023/05/26 09:12:00;;;;;;;22.33;4.07;;;16.80;99.90;;;;;;5133691;27;20039;-69
2023/05/26 09:14:26;;;;;;;19.67;4.70;;;16.40;99.90;;;;;;5115557;27;20050;-66
2023/05/26 09:16:54;;;;;;;14.55;3.63;;;16.30;99.90;;;;;;5116570;27;20031;-68
2023/05/26 09:19:20;;;;;;;24.88;4.40;;;16.50;99.90;;;;;;5134442;27;20107;-68
2023/05/26 09:21:48;;;;;;;10.98;3.05;;;16.10;99.90;;;;;;5134071;27;20054;-69
2023/05/26 09:24:16;;;;;;;17.60;3.40;;;15.20;99.90;;;;;;5114551;27;20162;-68
2023/05/26 09:26:44;;;;;;;14.38;3.55;;;16.00;99.90;;;;;;5134798;27;20038;-68
2023/05/26 09:29:10;;;;;;;15.65;3.38;;;15.90;99.90;;;;;;5132486;27;20057;-69
2023/05/26 09:31:48;;;;;;;17.50;4.32;;;15.90;99.90;;;;;;5134955;27;20035;-67
2023/05/26 09:34:15;;;;;;;17.60;3.67;;;15.90;99.90;;;;;;5132495;27;20082;-68
2023/05/26 09:36:41;;;;;;;13.55;3.33;;;15.90;99.90;;;;;;5133385;27;20458;-68
2023/05/26 09:39:12;;;;;;;18.02;3.63;;;15.60;99.90;;;;;;5134146;27;20380;-67
2023/05/26 09:41:47;;;;;;;15.02;3.38;;;15.80;99.90;;;;;;5116202;27;20108;-68
2023/05/26 09:44:18;;;;;;;14.85;3.28;;;15.70;99.90;;;;;;5113808;27;20034;-67
2023/05/26 09:46:45;;;;;;;14.55;3.35;;;15.60;99.90;;;;;;5133072;27;20115;-68
2023/05/26 09:49:16;;;;;;;18.58;3.03;;;15.80;99.90;;;;;;5115187;27;20127;-68
2023/05/26 09:51:47;;;;;;;14.32;3.75;;;16.00;99.90;;;;;;5131239;27;20051;-68
2023/05/26 09:54:13;;;;;;;15.70;3.40;;;16.20;99.90;;;;;;5132884;27;20042;-68
2023/05/26 09:57:05;;;;;;;16.20;2.97;;;16.10;99.90;;;;;;5134116;27;20849;-68
2023/05/26 09:59:36;;;;;;;18.48;3.15;;;16.10;99.90;;;;;;5130740;27;20512;-68
2023/05/26 10:02:11;;;;;;;18.10;3.20;;;15.90;99.90;;;;;;5130823;27;20128;-68
2023/05/26 10:04:37;;;;;;;15.38;3.53;;;15.90;99.90;;;;;;5132449;27;20057;-69
2023/05/26 10:07:04;;;;;;;22.30;4.20;;;17.90;99.90;;;;;;5131596;27;20042;-68
2023/05/26 10:09:32;;;;;;;19.27;3.75;;;15.90;99.90;;;;;;5132076;27;20047;-68
2023/05/26 10:11:58;;;;;;;12.60;3.22;;;16.00;99.90;;;;;;5132701;27;20116;-67
2023/05/26 10:14:24;;;;;;;15.77;3.33;;;15.80;99.90;;;;;;5132027;27;20043;-68
2023/05/26 10:16:51;;;;;;;13.35;2.95;;;15.90;99.90;;;;;;5131691;27;20123;-68
2023/05/26 10:19:17;;;;;;;16.40;3.55;;;15.80;99.90;;;;;;5131870;27;20161;-68
2023/05/26 10:21:51;;;;;;;20.73;3.67;;;15.50;99.90;;;;;;5134289;27;20114;-68
2023/05/26 10:24:29;;;;;;;16.77;3.13;;;15.80;99.90;;;;;;5132643;27;20043;-69
2023/05/26 10:27:04;;;;;;;19.38;3.70;;;15.80;99.90;;;;;;5129340;27;20410;-67
2023/05/26 10:29:51;;;;;;;19.55;3.67;;;15.90;99.90;;;;;;5131970;27;20047;-67
2023/05/26 10:32:46;;;;;;;13.07;2.95;;;15.90;99.90;;;;;;5132542;27;20078;-67
2023/05/26 10:35:31;;;;;;;15.82;3.88;;;16.20;99.90;;;;;;5133029;27;20042;-68
2023/05/26 10:38:03;;;;;;;16.75;3.13;;;16.10;99.90;;;;;;5134215;27;20050;-68
2023/05/26 10:40:33;;;;;;;17.17;3.63;;;16.10;99.90;;;;;;5134367;27;20521;-69
2023/05/26 10:43:10;;;;;;;15.55;3.20;;;16.10;99.90;;;;;;5132667;27;20352;-68
2023/05/26 10:45:52;;;;;;;17.98;3.45;;;16.20;99.90;;;;;;5131245;27;20508;-68
2023/05/26 10:48:18;;;;;;;;;;;16.10;99.90;;;;;;5132988;27;20050;-67
2023/05/26 10:50:59;;;;;;;17.17;3.38;;;16.30;99.90;;;;;;5132012;27;19922;-67
2023/05/26 10:53:42;;;;;;;13.45;3.60;;;16.00;99.90;;;;;;5131040;27;20043;-70
2023/05/26 10:56:12;;;;;;;13.80;3.10;;;16.20;99.90;;;;;;5116983;27;20587;-70
2023/05/26 10:58:47;;;;;;;14.40;3.60;;;16.50;99.90;;;;;;5131692;27;20038;-68
2023/05/26 11:01:20;;;;;;;15.95;3.30;;;16.80;99.90;;;;;;5131918;27;20638;-69
2023/05/26 11:03:58;;;;;;;17.58;3.88;;;16.60;99.90;;;;;;5132095;27;20047;-71
2023/05/26 11:06:46;;;;;;;15.02;3.80;;;16.90;99.90;;;;;;5129319;27;20050;-68
2023/05/26 11:09:12;;;;;;;14.52;2.85;;;16.80;99.90;;;;;;5135279;27;20434;-68
2023/05/26 11:11:51;;;;;;;22.00;4.35;;;16.90;99.90;;;;;;5135837;27;20053;-68
2023/05/26 11:14:23;;;;;;;20.30;3.80;;;16.80;99.90;;;;;;5135182;27;20039;-67
2023/05/26 11:16:49;;;;;;;15.45;3.60;;;17.00;99.90;;;;;;5118070;27;20042;-69
2023/05/26 11:19:25;;;;;;;16.92;3.47;;;16.70;99.90;;;;;;5134152;27;20460;-67
2023/05/26 11:21:52;;;;;;;12.63;3.40;;;17.10;99.90;;;;;;5135289;27;20061;-68
2023/05/26 11:24:18;;;;;;;16.00;3.97;;;17.00;99.90;;;;;;5135513;27;20050;-68
2023/05/26 11:26:44;;;;;;;15.35;3.67;;;16.80;99.90;;;;;;5136857;27;21494;-66
2023/05/26 11:29:09;;;;;;;14.00;3.00;;;16.90;99.90;;;;;;5135411;27;20114;-67
2023/05/26 11:31:36;;;;;;;17.55;3.55;;;16.70;99.90;;;;;;5135304;27;20074;-68
2023/05/26 11:34:02;;;;;;;18.17;3.95;;;16.60;99.90;;;;;;5133130;27;20412;-69
2023/05/26 11:36:28;;;;;;;14.30;3.03;;;16.70;99.90;;;;;;5135904;27;20061;-67
2023/05/26 11:38:59;;;;;;;17.38;5.40;;;17.00;99.90;;;;;;5136430;27;20236;-67
2023/05/26 11:41:26;;;;;;;17.13;3.38;;;17.00;99.90;;;;;;5135712;27;20042;-69
2023/05/26 11:43:58;;;;;;;21.52;4.85;;;17.00;99.90;;;;;;5135697;27;20095;-68
2023/05/26 11:46:27;;;;;;;20.60;4.22;;;17.20;99.90;;;;;;5135054;27;20066;-68
2023/05/26 11:48:53;;;;;;;15.38;3.67;;;16.90;99.90;;;;;;5117277;27;20055;-68
2023/05/26 11:51:20;;;;;;;20.40;4.00;;;16.80;99.90;;;;;;5136819;27;20066;-68
2023/05/26 11:53:51;;;;;;;19.10;3.78;;;16.60;99.90;;;;;;5135110;27;20387;-68
2023/05/26 11:56:17;;;;;;;17.67;3.67;;;16.70;99.90;;;;;;5137980;27;20046;-68
2023/05/26 11:58:47;;;;;;;14.65;4.07;;;16.90;99.90;;;;;;5136194;27;20107;-68
2023/05/26 12:01:13;;;;;;;17.05;4.00;;;17.00;99.90;;;;;;5135826;27;20054;-66
2023/05/26 12:03:41;;;;;;;18.92;4.38;;;16.80;99.90;;;;;;5117541;27;20537;-68
2023/05/26 12:06:21;;;;;;;20.35;4.43;;;16.60;99.90;;;;;;5134569;27;20055;-70
2023/05/26 12:08:56;;;;;;;20.65;4.65;;;16.60;99.90;;;;;;5135278;27;20115;-68
2023/05/26 12:11:38;;;;;;;17.23;4.28;;;16.30;99.90;;;;;;5136098;27;20046;-68
2023/05/26 12:14:11;;;;;;;14.13;3.08;;;15.90;99.90;;;;;;5134155;27;20042;-68
2023/05/26 12:16:40;;;;;;;20.83;4.80;;;15.90;99.90;;;;;;5133214;27;20046;-69
2023/05/26 12:19:10;;;;;;;16.92;4.55;;;16.20;99.90;;;;;;5132943;27;20058;-68
2023/05/26 12:21:45;;;;;;;14.05;3.95;;;16.50;99.90;;;;;;5134416;27;20062;-69
2023/05/26 12:24:12;;;;;;;17.33;3.80;;;16.50;99.90;;;;;;5133131;27;20142;-69
2023/05/26 12:26:38;;;;;;;20.98;4.28;;;16.80;99.90;;;;;;5136402;27;20118;-69
2023/05/26 12:29:10;;;;;;;20.25;4.13;;;16.80;99.90;;;;;;5133646;27;20054;-68
2023/05/26 12:31:40;;;;;;;;;;;16.90;99.90;;;;;;5135055;27;20043;-69
2023/05/26 12:34:11;;;;;;;20.17;4.45;;;17.20;99.90;;;;;;5133894;27;19927;-69
2023/05/26 12:36:37;;;;;;;18.02;4.75;;;16.20;99.90;;;;;;5135170;27;20439;-70
2023/05/26 12:39:03;;;;;;;19.33;4.60;;;16.10;99.90;;;;;;5133561;27;20046;-71
2023/05/26 12:41:30;;;;;;;20.58;4.40;;;16.10;99.90;;;;;;5135725;27;20077;-69
2023/05/26 12:43:57;;;;;;;17.73;4.05;;;15.80;99.90;;;;;;5113971;27;20035;-69
2023/05/26 12:46:23;;;;;;;19.85;3.97;;;15.90;99.90;;;;;;5133591;27;20031;-69